createdAt,value
2023-02-22T00:06:26.576Z,6.57
2023-02-22T00:16:29.128Z,6.89
2023-02-22T00:26:33.564Z,6.76
2023-02-22T00:36:37.183Z,6.55
2023-02-22T00:46:39.506Z,5.93
2023-02-22T00:56:43.108Z,5.92
2023-02-22T01:06:45.422Z,5.65
2023-02-22T01:16:47.735Z,5.51
2023-02-22T01:26:51.782Z,5.33
2023-02-22T01:36:54.118Z,5.75
2023-02-22T01:46:57.781Z,6.26
2023-02-22T01:57:07.567Z,5.86
2023-02-22T02:07:13.281Z,5.73
2023-02-22T02:17:20.050Z,5.45
2023-02-22T02:27:24.356Z,5.46
2023-02-22T02:37:41.109Z,5.87
2023-02-22T02:47:47.583Z,5.83
2023-02-22T02:57:49.638Z,5.17
2023-02-22T03:08:14.091Z,5.30
2023-02-22T03:18:22.916Z,4.95
2023-02-22T03:28:27.037Z,5.61
2023-02-22T03:38:32.189Z,5.34
2023-02-22T03:48:44.103Z,5.05
2023-02-22T03:58:50.328Z,5.03
2023-02-22T04:08:54.224Z,4.65
2023-02-22T04:18:57.633Z,4.68
2023-02-22T04:28:59.951Z,4.31
2023-02-22T04:39:09.279Z,4.19
2023-02-22T04:49:11.824Z,3.38
2023-02-22T04:59:16.624Z,4.26
2023-02-22T05:09:21.805Z,4.72
2023-02-22T05:19:24.565Z,4.69
2023-02-22T05:29:26.632Z,4.48
2023-02-22T05:39:29.289Z,4.67
2023-02-22T05:49:31.656Z,4.47
2023-02-22T05:59:34.085Z,3.61
2023-02-22T06:09:36.462Z,4.04
2023-02-22T06:19:40.514Z,4.14
2023-02-22T06:29:46.687Z,3.55
2023-02-22T06:39:49.049Z,3.03
2023-02-22T06:49:55.551Z,3.40
2023-02-22T06:59:57.905Z,3.39
2023-02-22T07:10:00.058Z,3.69
2023-02-22T07:20:02.445Z,3.97
2023-02-22T07:30:09.024Z,4.25
2023-02-22T07:40:12.016Z,4.50
2023-02-22T07:50:16.180Z,4.59
2023-02-22T08:00:29.936Z,4.63
2023-02-22T08:10:33.095Z,4.19
2023-02-22T08:20:36.657Z,4.97
2023-02-22T08:30:40.761Z,4.46
2023-02-22T08:40:43.206Z,5.31
2023-02-22T08:50:45.805Z,5.68
2023-02-22T09:00:48.714Z,5.75
2023-02-22T09:10:51.478Z,4.97
2023-02-22T09:20:54.437Z,6.81
2023-02-22T09:30:56.752Z,7.75
2023-02-22T09:41:07.261Z,7.92
2023-02-22T09:51:15.889Z,8.90
2023-02-22T10:01:26.968Z,9.06
2023-02-22T10:11:35.662Z,9.30
2023-02-22T10:22:07.954Z,9.91
2023-02-22T10:32:28.691Z,10.04
2023-02-22T10:42:31.063Z,10.74
2023-02-22T10:52:34.593Z,11.02
2023-02-22T11:02:36.809Z,10.99
2023-02-22T11:12:41.476Z,10.62
2023-02-22T11:22:43.562Z,11.33
2023-02-22T11:32:48.452Z,11.36
2023-02-22T11:43:08.465Z,12.03
2023-02-22T11:53:32.072Z,12.27
2023-02-22T12:03:46.424Z,11.23
2023-02-22T12:14:15.413Z,11.57
2023-02-22T12:24:24.305Z,12.33
2023-02-22T12:34:36.079Z,11.90
2023-02-22T12:44:40.411Z,11.91
2023-02-22T12:54:45.658Z,12.55
2023-02-22T13:04:48.078Z,12.61
2023-02-22T13:15:00.580Z,12.18
2023-02-22T13:25:20.728Z,12.56
2023-02-22T13:35:55.514Z,13.19
2023-02-22T13:46:33.796Z,13.21
2023-02-22T13:56:36.117Z,12.76
2023-02-22T14:06:41.537Z,12.56
2023-02-22T14:16:44.026Z,11.60
2023-02-22T14:26:57.176Z,13.01
2023-02-22T14:37:11.443Z,12.76
2023-02-22T14:47:41.018Z,12.77
2023-02-22T14:58:11.560Z,13.41
2023-02-22T15:08:17.011Z,12.90
2023-02-22T15:18:34.431Z,13.24
2023-02-22T15:28:38.424Z,12.43
2023-02-22T15:38:43.657Z,13.06
2023-02-22T15:49:07.495Z,12.48
2023-02-22T15:59:15.274Z,12.84
2023-02-22T16:09:26.022Z,12.34
2023-02-22T16:19:40.681Z,12.09
2023-02-22T16:30:00.486Z,11.99
2023-02-22T16:40:05.572Z,11.86
2023-02-22T16:50:08.791Z,11.53
2023-02-22T17:00:31.105Z,11.26
2023-02-22T17:10:35.489Z,11.39
2023-02-22T17:20:39.542Z,11.43
2023-02-22T17:30:43.944Z,11.34
2023-02-22T17:40:48.153Z,10.91
2023-02-22T17:50:50.597Z,10.57
2023-02-22T18:00:59.029Z,10.86
2023-02-22T18:11:05.184Z,10.65
2023-02-22T18:21:07.923Z,10.79
2023-02-22T18:31:15.787Z,10.47
2023-02-22T18:41:19.370Z,10.58
2023-02-22T18:51:22.315Z,9.82
2023-02-22T19:01:25.099Z,9.94
2023-02-22T19:11:27.848Z,9.59
2023-02-22T19:21:31.543Z,10.13
2023-02-22T19:31:36.849Z,9.90
2023-02-22T19:41:39.491Z,10.01
2023-02-22T19:51:42.712Z,9.59
2023-02-22T20:01:45.011Z,9.81
2023-02-22T20:11:47.675Z,9.66
2023-02-22T20:21:52.245Z,9.45
2023-02-22T20:32:00.013Z,9.17
2023-02-22T20:42:04.778Z,9.19
2023-02-22T20:52:07.109Z,8.92
2023-02-22T21:02:10.697Z,8.57
2023-02-22T21:12:13.825Z,8.44
2023-02-22T21:22:16.185Z,8.83
2023-02-22T21:32:18.377Z,8.41
2023-02-22T21:42:21.003Z,9.01
2023-02-22T21:52:25.775Z,8.62
2023-02-22T22:02:29.418Z,9.01
2023-02-22T22:12:39.218Z,8.63
2023-02-22T22:22:46.598Z,8.82
2023-02-22T22:32:48.956Z,8.82
2023-02-22T22:42:52.028Z,8.69
2023-02-22T22:52:55.641Z,9.16
2023-02-22T23:02:58.201Z,8.72
2023-02-22T23:13:00.560Z,8.95
2023-02-22T23:23:03.678Z,8.64
2023-02-22T23:33:05.754Z,9.09
2023-02-22T23:43:10.286Z,8.81
2023-02-22T23:53:15.129Z,8.27
